Time;durP1;ratioP1;P1;durP2;ratioP2;P2;SDS_P1;SDS_P2;PMS_P1;PMS_P2;Temp;Humidity;BMP_temperature;BMP_pressure;BME280_temperature;BME280_humidity;BME280_pressure;Samples;Min_cycle;Max_cycle;Signal;HPM_P1;HPM_P2
2023/09/16 00:00:08;;;;;;;395.00;351.93;;;;;;;22.72;76.91;99837.91;347445;28;925;-76
2023/09/16 00:00:18;;;;;;;397.95;354.58;;;;;;;22.74;77.40;99845.78;351308;28;1234;-76
2023/09/16 00:00:34;;;;;;;395.38;351.80;;;;;;;22.72;77.35;99843.25;350250;28;899;-76
2023/09/16 00:00:45;;;;;;;392.48;348.98;;;;;;;22.72;77.23;99837.91;347430;28;880;-76
2023/09/16 00:00:55;;;;;;;396.93;353.30;;;;;;;22.70;77.26;99845.19;348359;28;1371;-76
2023/09/16 00:01:05;;;;;;;397.80;354.03;;;;;;;22.68;77.67;99841.81;349314;28;1287;-76
2023/09/16 00:01:16;;;;;;;397.25;353.05;;;;;;;22.68;77.60;99840.97;347352;28;1791;-76
2023/09/16 00:01:28;;;;;;;394.67;350.33;;;;;;;22.66;77.64;99838.44;344772;28;794;-75
2023/09/16 00:01:39;;;;;;;392.63;345.52;;;;;;;22.68;77.47;99847.16;344692;28;975;-75
2023/09/16 00:01:49;;;;;;;395.60;351.77;;;;;;;22.68;77.69;99838.31;347159;28;1239;-74
2023/09/16 00:01:59;;;;;;;394.77;348.10;;;;;;;22.69;77.48;99842.66;347308;28;1315;-76
2023/09/16 00:02:10;;;;;;;394.53;350.03;;;;;;;22.69;77.88;99838.19;347239;28;1255;-75
2023/09/16 00:02:20;;;;;;;392.20;345.03;;;;;;;22.68;77.45;99841.81;345766;28;1179;-75
2023/09/16 00:02:32;;;;;;;392.38;344.83;;;;;;;22.69;77.38;99838.19;344708;28;904;-76
2023/09/16 00:02:42;;;;;;;396.55;346.10;;;;;;;22.69;77.72;99838.19;344278;28;1239;-76
2023/09/16 00:02:52;;;;;;;396.50;345.05;;;;;;;22.69;77.51;99832.84;345646;28;1811;-75
2023/09/16 00:03:06;;;;;;;394.57;346.10;;;;;;;22.71;77.62;99836.22;346106;28;864;-75
2023/09/16 00:03:16;;;;;;;391.58;345.08;;;;;;;22.71;77.64;99835.38;344716;28;908;-75
2023/09/16 00:03:26;;;;;;;390.95;342.50;;;;;;;22.70;77.53;99844.34;345056;28;1330;-75
2023/09/16 00:03:37;;;;;;;390.77;341.10;;;;;;;22.70;77.46;99844.34;343343;28;1168;-75
2023/09/16 00:03:47;;;;;;;391.75;346.67;;;;;;;22.68;77.36;99839.16;344796;28;837;-75
2023/09/16 00:03:58;;;;;;;399.00;355.23;;;;;;;22.68;77.90;99831.16;347274;28;1268;-75
2023/09/16 00:04:11;;;;;;;405.23;361.35;;;;;;;22.68;77.45;99833.81;345464;28;957;-76
2023/09/16 00:04:23;;;;;;;396.35;352.48;;;;;;;22.69;77.84;99835.50;343792;28;1149;-75
2023/09/16 00:04:33;;;;;;;396.77;346.33;;;;;;;22.69;77.52;99838.19;344433;28;1422;-75
2023/09/16 00:04:44;;;;;;;395.13;343.40;;;;;;;22.69;77.81;99827.50;341777;28;1468;-75
2023/09/16 00:04:54;;;;;;;395.23;350.33;;;;;;;22.69;77.54;99837.34;343994;28;1298;-75
2023/09/16 00:05:05;;;;;;;393.73;350.17;;;;;;;22.69;77.42;99835.50;339046;29;1306;-76
2023/09/16 00:05:17;;;;;;;396.38;352.83;;;;;;;22.69;77.79;99838.19;337981;29;1355;-76
2023/09/16 00:05:27;;;;;;;391.33;343.35;;;;;;;22.67;77.99;99831.28;343569;28;993;-75
2023/09/16 00:05:38;;;;;;;393.47;349.87;;;;;;;22.66;77.65;99843.78;343311;28;872;-76
2023/09/16 00:05:49;;;;;;;393.83;347.48;;;;;;;22.65;78.07;99831.41;342076;28;939;-76
2023/09/16 00:05:59;;;;;;;392.67;348.70;;;;;;;22.65;77.58;99834.09;340606;29;852;-75
2023/09/16 00:06:12;;;;;;;392.13;340.97;;;;;;;22.65;77.60;99836.75;339630;29;1113;-76
2023/09/16 00:06:24;;;;;;;396.33;348.80;;;;;;;22.64;77.83;99834.22;340066;28;1368;-76
2023/09/16 00:06:34;;;;;;;401.65;357.38;;;;;;;22.66;77.99;99832.25;340464;28;1501;-76
2023/09/16 00:06:46;;;;;;;398.63;353.77;;;;;;;22.65;77.73;99836.75;343141;28;1311;-76
2023/09/16 00:06:56;;;;;;;398.40;354.15;;;;;;;22.67;77.50;99844.63;341575;28;1401;-76
2023/09/16 00:07:07;;;;;;;396.08;350.73;;;;;;;22.68;77.71;99835.63;343287;28;1579;-76
2023/09/16 00:07:17;;;;;;;398.07;353.30;;;;;;;22.68;77.63;99836.50;346014;28;1201;-76
2023/09/16 00:07:28;;;;;;;396.35;346.17;;;;;;;22.67;77.78;99833.94;343043;28;1922;-76
2023/09/16 00:07:38;;;;;;;397.30;347.00;;;;;;;22.69;78.07;99837.34;342978;28;2775;-76
2023/09/16 00:07:48;;;;;;;393.13;345.03;;;;;;;22.68;77.50;99833.81;340555;28;4799;-76
2023/09/16 00:07:59;;;;;;;394.40;350.30;;;;;;;22.68;77.56;99832.97;342773;28;5012;-76
2023/09/16 00:08:09;;;;;;;394.17;346.63;;;;;;;22.67;77.76;99832.13;345056;28;1200;-76
2023/09/16 00:08:21;;;;;;;393.77;348.40;;;;;;;22.68;77.69;99827.63;343206;28;5081;-77
2023/09/16 00:08:33;;;;;;;390.48;342.15;;;;;;;22.69;77.64;99838.19;343918;28;1084;-77
2023/09/16 00:08:43;;;;;;;390.05;346.60;;;;;;;22.70;77.70;99834.53;339157;28;1845;-76
2023/09/16 00:08:53;;;;;;;390.83;346.40;;;;;;;22.71;77.69;99836.22;337947;28;1795;-76
2023/09/16 00:09:04;;;;;;;394.93;351.40;;;;;;;22.72;77.86;99832.56;336612;29;1779;-76
2023/09/16 00:09:14;;;;;;;391.30;345.13;;;;;;;22.73;77.72;99828.09;334650;29;1695;-76
2023/09/16 00:09:25;;;;;;;388.55;340.73;;;;;;;22.74;77.73;99829.78;336037;29;2135;-76
2023/09/16 00:09:36;;;;;;;389.40;342.05;;;;;;;22.73;77.57;99830.75;334798;29;1689;-76
2023/09/16 00:09:47;;;;;;;391.97;348.27;;;;;;;22.72;77.41;99832.56;335444;29;1220;-76
2023/09/16 00:09:57;;;;;;;394.58;350.80;;;;;;;22.74;77.76;99824.44;331322;29;1349;-76
2023/09/16 00:10:08;;;;;;;393.43;348.67;;;;;;;22.72;77.62;99827.22;332443;29;1324;-76
2023/09/16 00:10:18;;;;;;;393.08;348.20;;;;;;;22.73;77.39;99828.09;332926;29;862;-75
2023/09/16 00:10:29;;;;;;;392.37;348.43;;;;;;;22.72;77.61;99826.41;333928;29;1759;-76
2023/09/16 00:10:40;;;;;;;391.20;345.13;;;;;;;22.72;78.20;99827.22;332494;29;1957;-76
2023/09/16 00:10:50;;;;;;;394.40;350.70;;;;;;;22.71;77.51;99830.88;331457;29;2325;-76
2023/09/16 00:11:01;;;;;;;404.43;360.37;;;;;;;22.71;77.86;99835.38;332807;29;1196;-76
2023/09/16 00:11:11;;;;;;;407.03;362.77;;;;;;;22.69;77.72;99835.50;330470;29;2316;-76
2023/09/16 00:11:22;;;;;;;397.42;353.58;;;;;;;22.68;77.97;99832.97;330621;29;2372;-76
2023/09/16 00:11:32;;;;;;;394.30;350.67;;;;;;;22.67;78.08;99839.28;330336;29;1396;-76
2023/09/16 00:11:43;;;;;;;390.30;346.70;;;;;;;22.65;77.79;99831.41;331261;29;2604;-76
2023/09/16 00:11:53;;;;;;;397.92;354.17;;;;;;;22.65;78.07;99831.41;330921;29;1819;-76
2023/09/16 00:12:04;;;;;;;392.40;347.03;;;;;;;22.64;78.16;99832.41;330471;29;879;-76
2023/09/16 00:12:14;;;;;;;396.52;351.40;;;;;;;22.63;78.05;99838.72;326670;30;880;-76
2023/09/16 00:12:25;;;;;;;393.67;345.40;;;;;;;22.63;78.15;99841.38;326247;30;2056;-76
2023/09/16 00:12:35;;;;;;;394.95;349.95;;;;;;;22.64;77.97;99842.22;325554;29;2425;-76
2023/09/16 00:12:45;;;;;;;394.73;351.03;;;;;;;22.63;78.37;99837.88;330414;29;1199;-76
2023/09/16 00:12:56;;;;;;;395.77;350.98;;;;;;;22.61;78.25;99832.66;327152;30;2694;-76
2023/09/16 00:13:06;;;;;;;396.97;352.27;;;;;;;22.63;78.22;99838.72;320480;30;3214;-75
2023/09/16 00:13:18;;;;;;;395.10;350.00;;;;;;;22.62;78.02;99837.03;317176;31;1472;-75
2023/09/16 00:13:28;;;;;;;395.42;351.77;;;;;;;22.62;77.95;99836.19;319728;30;3252;-75
2023/09/16 00:13:41;;;;;;;390.97;346.17;;;;;;;22.63;78.09;99843.19;320859;30;3032;-76
2023/09/16 00:13:51;;;;;;;390.13;340.42;;;;;;;22.62;77.99;99837.03;319350;30;3223;-76
2023/09/16 00:14:02;;;;;;;392.08;343.38;;;;;;;22.64;77.69;99837.72;314972;31;1486;-76
2023/09/16 00:14:12;;;;;;;392.00;346.60;;;;;;;22.66;78.13;99842.94;317840;31;2520;-77
2023/09/16 00:14:24;;;;;;;393.77;348.13;;;;;;;22.65;77.96;99834.09;317546;30;2139;-76
2023/09/16 00:14:36;;;;;;;395.10;346.85;;;;;;;22.65;78.29;99842.09;319165;30;2869;-76
2023/09/16 00:14:46;;;;;;;397.02;351.10;;;;;;;22.66;78.14;99843.78;319559;30;1453;-76
2023/09/16 00:14:57;;;;;;;408.13;363.57;;;;;;;22.66;78.17;99838.44;313144;31;3914;-76
2023/09/16 00:15:07;;;;;;;411.17;366.53;;;;;;;22.65;77.92;99836.75;310976;31;3962;-76
2023/09/16 00:15:21;;;;;;;409.25;364.95;;;;;;;22.66;78.02;99840.28;313929;31;1016;-76
2023/09/16 00:15:32;;;;;;;404.02;360.00;;;;;;;22.66;78.28;99838.44;310431;31;886;-77
2023/09/16 00:15:45;;;;;;;400.40;356.63;;;;;;;22.65;78.35;99842.09;310919;31;4301;-76
2023/09/16 00:15:57;;;;;;;405.02;361.05;;;;;;;22.65;78.05;99834.09;306057;32;3877;-75
2023/09/16 00:16:08;;;;;;;404.75;360.77;;;;;;;22.65;77.81;99842.09;304186;32;4549;-75
2023/09/16 00:16:20;;;;;;;404.90;360.73;;;;;;;22.66;78.16;99838.44;304111;32;1315;-76
2023/09/16 00:16:30;;;;;;;400.67;356.80;;;;;;;22.68;77.96;99840.97;301900;32;1117;-76
2023/09/16 00:16:40;;;;;;;399.30;355.45;;;;;;;22.68;78.22;99841.81;300925;32;3633;-76
2023/09/16 00:16:52;;;;;;;400.33;356.47;;;;;;;22.68;78.17;99840.97;298931;32;4102;-76
2023/09/16 00:17:04;;;;;;;403.38;358.95;;;;;;;22.67;78.31;99845.47;299715;32;5167;-76
2023/09/16 00:17:14;;;;;;;400.15;355.35;;;;;;;22.67;77.98;99842.81;301369;32;5477;-76
2023/09/16 00:17:25;;;;;;;403.80;356.55;;;;;;;22.67;78.16;99837.47;298621;32;6117;-77
2023/09/16 00:17:36;;;;;;;402.40;356.60;;;;;;;22.66;78.27;99841.13;298078;32;6192;-76
2023/09/16 00:17:46;;;;;;;403.95;359.33;;;;;;;22.66;78.08;99849.13;300327;32;1331;-76
2023/09/16 00:17:56;;;;;;;397.17;350.33;;;;;;;22.66;78.13;99840.28;297846;32;6400;-76
2023/09/16 00:18:07;;;;;;;396.43;352.43;;;;;;;22.65;78.36;99836.75;294623;33;5448;-76
2023/09/16 00:18:18;;;;;;;400.75;356.67;;;;;;;22.66;78.29;99838.44;292916;33;1423;-76
2023/09/16 00:18:28;;;;;;;403.42;359.35;;;;;;;22.66;78.45;99848.28;293964;33;6496;-76
2023/09/16 00:18:39;;;;;;;406.73;362.53;;;;;;;22.65;78.32;99835.91;293445;33;4969;-75
2023/09/16 00:18:49;;;;;;;412.33;368.05;;;;;;;22.65;78.15;99836.75;292127;33;6061;-75
2023/09/16 00:19:00;;;;;;;408.43;364.37;;;;;;;22.65;78.21;99844.75;291983;33;1255;-75
2023/09/16 00:19:10;;;;;;;400.15;356.23;;;;;;;22.65;77.97;99835.91;293061;33;6395;-75
2023/09/16 00:19:21;;;;;;;396.27;352.33;;;;;;;22.64;78.17;99840.41;293074;33;7404;-75
2023/09/16 00:19:31;;;;;;;404.33;360.00;;;;;;;22.64;78.45;99840.41;292043;33;859;-75
2023/09/16 00:19:41;;;;;;;412.47;368.10;;;;;;;22.64;78.53;99835.06;288691;33;7823;-75
2023/09/16 00:19:53;;;;;;;418.58;374.25;;;;;;;22.64;78.38;99835.06;286137;34;8958;-75
2023/09/16 00:20:11;;;;;;;411.05;366.98;;;;;;;22.64;78.21;99840.41;290032;34;969;-76
2023/09/16 00:20:25;;;;;;;400.08;356.05;;;;;;;22.62;78.59;99839.69;284829;34;7339;-76
2023/09/16 00:20:36;;;;;;;402.75;358.52;;;;;;;22.61;78.36;99838.00;279764;34;8566;-76
2023/09/16 00:20:49;;;;;;;403.13;359.10;;;;;;;22.62;78.63;99845.03;278971;35;1367;-76
2023/09/16 00:21:00;;;;;;;398.38;354.60;;;;;;;22.61;78.33;99835.34;278021;35;1371;-76
2023/09/16 00:21:10;;;;;;;397.33;353.65;;;;;;;22.62;78.70;99836.19;278196;35;7212;-76
2023/09/16 00:22:57;;;;;;;383.28;323.96;;;;;;;22.62;78.34;99831.69;2494681;27;20284;-75
2023/09/16 00:23:07;;;;;;;387.13;335.90;;;;;;;22.62;78.87;99837.03;352938;28;1237;-75
2023/09/16 00:23:18;;;;;;;388.90;341.83;;;;;;;22.62;78.34;99837.03;351179;28;2103;-75
2023/09/16 00:23:28;;;;;;;392.60;348.45;;;;;;;22.63;78.46;99835.19;351593;28;827;-75
2023/09/16 00:23:39;;;;;;;396.00;348.60;;;;;;;22.62;78.40;99839.69;350973;28;780;-75
2023/09/16 00:23:49;;;;;;;395.35;344.00;;;;;;;22.62;78.71;99837.03;348547;28;1386;-75
2023/09/16 00:24:00;;;;;;;393.17;341.07;;;;;;;22.61;78.83;99831.81;350021;28;1302;-75
2023/09/16 00:24:11;;;;;;;392.10;345.40;;;;;;;22.61;78.55;99840.66;347431;28;964;-75
2023/09/16 00:24:21;;;;;;;393.00;348.90;;;;;;;22.60;78.58;99830.97;348736;28;958;-76
2023/09/16 00:24:32;;;;;;;396.57;352.87;;;;;;;22.59;78.78;99831.94;346170;28;1026;-75
2023/09/16 00:24:42;;;;;;;397.33;353.75;;;;;;;22.58;78.99;99831.09;348765;28;879;-74
2023/09/16 00:24:53;;;;;;;390.57;345.53;;;;;;;22.58;79.18;99832.94;351250;28;1188;-75
2023/09/16 00:25:04;;;;;;;389.38;340.75;;;;;;;22.58;78.91;99835.59;350120;28;1337;-75
2023/09/16 00:25:15;;;;;;;388.35;336.45;;;;;;;22.58;78.99;99836.44;350044;28;1192;-75
2023/09/16 00:25:26;;;;;;;390.30;344.63;;;;;;;22.59;78.86;99834.63;346026;28;943;-74
2023/09/16 00:25:36;;;;;;;393.23;349.60;;;;;;;22.59;78.49;99829.28;345916;28;809;-75
2023/09/16 00:25:47;;;;;;;400.58;356.45;;;;;;;22.61;78.64;99835.34;346022;28;856;-75
2023/09/16 00:25:58;;;;;;;403.90;359.53;;;;;;;22.61;78.66;99829.16;348583;28;796;-75
2023/09/16 00:26:09;;;;;;;398.23;354.17;;;;;;;22.62;78.73;99831.69;347944;28;2799;-75
2023/09/16 00:26:19;;;;;;;396.35;352.65;;;;;;;22.62;78.79;99831.69;346593;28;3074;-75
2023/09/16 00:26:29;;;;;;;398.27;354.57;;;;;;;22.62;78.96;99837.03;347150;28;3048;-75
2023/09/16 00:26:40;;;;;;;400.77;356.90;;;;;;;22.63;78.72;99827.19;345725;28;1387;-75
2023/09/16 00:26:51;;;;;;;395.88;351.83;;;;;;;22.62;78.71;99830.84;345858;28;1094;-75
2023/09/16 00:27:01;;;;;;;398.57;354.50;;;;;;;22.61;78.84;99832.66;345872;28;1235;-75
2023/09/16 00:27:12;;;;;;;404.48;360.30;;;;;;;22.60;78.88;99827.47;347349;28;927;-75
2023/09/16 00:27:22;;;;;;;402.73;358.60;;;;;;;22.60;79.02;99828.31;346871;28;1064;-75
2023/09/16 00:27:32;;;;;;;399.30;355.05;;;;;;;22.60;78.72;99828.31;344806;28;2100;-75
2023/09/16 00:27:43;;;;;;;398.40;352.67;;;;;;;22.60;78.80;99828.31;348978;28;1949;-75
2023/09/16 00:27:54;;;;;;;397.70;353.17;;;;;;;22.61;79.07;99832.66;348410;28;1628;-75
2023/09/16 00:28:06;;;;;;;394.02;346.35;;;;;;;22.60;78.81;99830.97;349296;28;1255;-75
2023/09/16 00:28:16;;;;;;;391.10;341.92;;;;;;;22.60;79.09;99830.97;345987;28;1041;-77
2023/09/16 00:28:26;;;;;;;391.35;338.85;;;;;;;22.60;78.84;99832.78;343141;28;1142;-77
2023/09/16 00:28:37;;;;;;;391.60;343.50;;;;;;;22.60;79.22;99828.31;345062;28;872;-75
2023/09/16 00:28:47;;;;;;;392.58;346.42;;;;;;;22.59;79.07;99826.63;344188;28;1123;-76
2023/09/16 00:28:58;;;;;;;392.50;343.60;;;;;;;22.59;79.01;99831.94;341876;28;1803;-76
2023/09/16 00:29:08;;;;;;;394.53;343.00;;;;;;;22.59;79.33;99826.63;341299;28;1188;-76
2023/09/16 00:29:18;;;;;;;396.33;340.42;;;;;;;22.59;78.87;99826.63;342680;28;1378;-76
2023/09/16 00:29:29;;;;;;;397.10;346.03;;;;;;;22.58;79.13;99830.25;343410;28;829;-76
2023/09/16 00:29:39;;;;;;;392.45;341.38;;;;;;;22.58;78.72;99830.25;342881;28;1425;-76
2023/09/16 00:29:50;;;;;;;392.50;345.67;;;;;;;22.58;79.12;99831.09;343460;28;1820;-77
2023/09/16 00:30:00;;;;;;;393.02;343.40;;;;;;;22.58;78.80;99824.94;343277;28;853;-75
2023/09/16 00:30:11;;;;;;;394.27;342.90;;;;;;;22.58;78.82;99836.44;340602;29;1286;-74
2023/09/16 00:30:21;;;;;;;393.33;337.25;;;;;;;22.59;78.57;99831.94;340771;29;1420;-74
2023/09/16 00:30:33;;;;;;;395.30;345.97;;;;;;;22.59;78.86;99831.94;341706;28;1055;-76
2023/09/16 00:30:45;;;;;;;397.73;353.88;;;;;;;22.58;79.08;99831.09;340548;29;1019;-75
2023/09/16 00:30:55;;;;;;;399.08;355.20;;;;;;;22.58;78.92;99828.44;342990;28;1305;-76
2023/09/16 00:31:07;;;;;;;392.23;346.60;;;;;;;22.60;78.65;99838.97;345776;28;1525;-75
2023/09/16 00:31:17;;;;;;;392.60;346.73;;;;;;;22.60;78.66;99832.78;342669;28;1464;-76
2023/09/16 00:31:28;;;;;;;392.33;343.60;;;;;;;22.59;78.71;99831.94;340442;29;1320;-76
2023/09/16 00:31:38;;;;;;;395.23;348.70;;;;;;;22.59;78.68;99837.28;338871;28;1615;-75
2023/09/16 00:31:48;;;;;;;395.97;348.13;;;;;;;22.57;78.64;99834.75;339074;28;1962;-76
2023/09/16 00:32:01;;;;;;;395.13;348.55;;;;;;;22.55;78.71;99835.88;341889;28;941;-76
2023/09/16 00:32:12;;;;;;;391.60;339.88;;;;;;;22.54;78.80;99837.69;339429;29;865;-76
2023/09/16 00:32:22;;;;;;;388.75;338.15;;;;;;;22.54;79.11;99837.69;341658;28;886;-75
2023/09/16 00:32:33;;;;;;;388.70;338.35;;;;;;;22.55;79.09;99835.88;336591;29;2238;-76
2023/09/16 00:32:43;;;;;;;388.00;338.97;;;;;;;22.54;78.86;99839.50;335565;29;878;-76
2023/09/16 00:32:54;;;;;;;388.58;344.38;;;;;;;22.52;79.01;99836.16;338600;29;1452;-76
2023/09/16 00:33:04;;;;;;;390.03;346.87;;;;;;;22.51;79.12;99845.97;336992;29;2681;-76
2023/09/16 00:33:15;;;;;;;394.92;351.55;;;;;;;22.51;79.25;99834.47;332880;29;1436;-76
2023/09/16 00:33:25;;;;;;;393.37;349.90;;;;;;;22.51;79.12;99845.13;327898;29;1414;-76
2023/09/16 00:33:36;;;;;;;393.40;346.58;;;;;;;22.52;79.38;99836.16;331454;29;2115;-76
2023/09/16 00:33:49;;;;;;;391.40;339.63;;;;;;;22.51;79.33;99842.47;326390;30;2234;-76
2023/09/16 00:33:59;;;;;;;391.15;336.83;;;;;;;22.51;78.89;99834.47;325595;30;899;-76
2023/09/16 00:34:09;;;;;;;390.57;337.53;;;;;;;22.52;79.01;99841.50;328671;29;1525;-76
2023/09/16 00:34:20;;;;;;;395.13;341.10;;;;;;;22.53;79.50;99837.81;330627;29;1192;-77
2023/09/16 00:34:30;;;;;;;395.50;342.57;;;;;;;22.51;79.34;99834.47;331723;29;1185;-77
2023/09/16 00:34:41;;;;;;;394.05;338.95;;;;;;;22.53;79.36;99840.47;327851;30;1250;-75
2023/09/16 00:34:51;;;;;;;390.83;336.37;;;;;;;22.52;79.41;99836.16;325925;30;1955;-74
2023/09/16 00:35:03;;;;;;;391.50;340.15;;;;;;;22.52;79.14;99846.81;326750;29;2182;-74
2023/09/16 00:35:13;;;;;;;391.73;343.80;;;;;;;22.51;79.52;99842.47;325806;30;1444;-76
2023/09/16 00:35:23;;;;;;;395.40;351.42;;;;;;;22.51;79.68;99845.13;323585;30;2841;-75
2023/09/16 00:35:34;;;;;;;399.10;355.30;;;;;;;22.49;79.70;99841.75;322470;29;5009;-76
2023/09/16 00:35:45;;;;;;;396.92;353.25;;;;;;;22.49;79.63;99841.75;323563;30;3241;-76
2023/09/16 00:35:56;;;;;;;397.90;353.73;;;;;;;22.48;79.81;99840.06;322934;30;1360;-75
2023/09/16 00:36:07;;;;;;;396.48;347.42;;;;;;;22.48;79.71;99832.91;318870;30;2695;-76
2023/09/16 00:36:18;;;;;;;397.42;347.52;;;;;;;22.49;79.13;99847.94;315817;31;1651;-76
2023/09/16 00:36:29;;;;;;;394.73;345.27;;;;;;;22.49;79.38;99847.94;312629;31;1334;-76
2023/09/16 00:36:39;;;;;;;395.53;346.17;;;;;;;22.49;79.69;99847.94;315569;31;1826;-76
2023/09/16 00:36:49;;;;;;;395.10;344.13;;;;;;;22.49;79.75;99847.94;315625;31;2213;-76
2023/09/16 00:37:00;;;;;;;394.67;341.17;;;;;;;22.50;79.60;99851.44;314959;31;787;-76
2023/09/16 00:37:10;;;;;;;394.95;339.67;;;;;;;22.50;79.47;99851.44;317847;30;2802;-75
2023/09/16 00:37:20;;;;;;;395.53;344.47;;;;;;;22.49;79.69;99849.75;318946;30;2870;-76
2023/09/16 00:37:31;;;;;;;394.47;345.47;;;;;;;22.49;79.84;99844.44;316394;31;3172;-76
2023/09/16 00:37:43;;;;;;;394.50;350.40;;;;;;;22.49;79.66;99842.59;315043;31;827;-76
2023/09/16 00:37:53;;;;;;;397.67;353.83;;;;;;;22.50;79.33;99848.78;313087;31;3484;-76
2023/09/16 00:38:04;;;;;;;396.13;352.30;;;;;;;22.50;79.28;99848.78;312385;31;3341;-75
2023/09/16 00:38:15;;;;;;;392.33;346.20;;;;;;;22.51;79.14;99845.13;312924;31;1378;-76
2023/09/16 00:38:26;;;;;;;393.63;344.13;;;;;;;22.50;79.37;99846.97;309478;31;867;-76
2023/09/16 00:38:36;;;;;;;394.67;346.50;;;;;;;22.51;79.68;99850.47;308954;31;2900;-76
2023/09/16 00:38:47;;;;;;;393.00;345.67;;;;;;;22.51;79.61;99850.47;309260;31;2411;-76
2023/09/16 00:38:57;;;;;;;393.17;349.17;;;;;;;22.53;79.23;99851.16;308284;31;1363;-76
2023/09/16 00:39:07;;;;;;;393.23;346.50;;;;;;;22.53;79.07;99853.81;307086;32;3171;-76
2023/09/16 00:39:18;;;;;;;395.48;348.70;;;;;;;22.53;79.50;99851.16;305168;32;3814;-76
2023/09/16 00:39:28;;;;;;;394.73;345.00;;;;;;;22.53;79.69;99851.16;304108;32;1255;-76
2023/09/16 00:39:39;;;;;;;396.20;348.57;;;;;;;22.52;79.74;99854.84;302077;32;4051;-76
2023/09/16 00:39:50;;;;;;;396.40;348.90;;;;;;;22.51;79.42;99850.47;297708;32;4341;-76
2023/09/16 00:40:00;;;;;;;397.85;351.70;;;;;;;22.53;79.46;99851.16;299878;32;1384;-76
2023/09/16 00:40:11;;;;;;;393.43;345.70;;;;;;;22.52;79.65;99850.34;298651;33;4634;-76
2023/09/16 00:40:21;;;;;;;392.80;343.50;;;;;;;22.52;79.76;99846.81;295908;33;5075;-75
2023/09/16 00:40:32;;;;;;;391.40;341.40;;;;;;;22.52;79.61;99844.16;295443;32;4303;-75
2023/09/16 00:40:42;;;;;;;395.30;347.60;;;;;;;22.54;79.54;99855.50;295978;33;852;-75
2023/09/16 00:40:52;;;;;;;396.00;350.80;;;;;;;22.53;79.23;99848.47;295827;33;2624;-75
2023/09/16 00:41:03;;;;;;;399.20;355.08;;;;;;;22.53;79.30;99849.34;296787;33;3648;-75
2023/09/16 00:41:13;;;;;;;395.17;351.30;;;;;;;22.53;79.51;99848.47;295924;33;911;-75
2023/09/16 00:41:24;;;;;;;393.05;348.15;;;;;;;22.53;79.46;99848.47;292288;33;4574;-75
2023/09/16 00:41:34;;;;;;;392.87;349.13;;;;;;;22.53;79.41;99848.47;293703;33;5541;-75
2023/09/16 00:41:45;;;;;;;397.30;353.48;;;;;;;22.53;79.78;99845.81;295974;33;1081;-75
2023/09/16 00:41:55;;;;;;;401.80;357.43;;;;;;;22.52;79.63;99849.50;294205;33;6152;-75
2023/09/16 00:42:05;;;;;;;398.37;351.43;;;;;;;22.52;79.80;99854.84;294267;33;6901;-76
2023/09/16 00:42:16;;;;;;;395.87;345.10;;;;;;;22.51;79.50;99853.13;293547;33;6345;-76
2023/09/16 00:42:26;;;;;;;393.20;344.67;;;;;;;22.51;79.58;99850.47;293940;33;1359;-76
2023/09/16 00:42:38;;;;;;;393.03;345.77;;;;;;;22.51;79.46;99850.47;292369;33;6120;-76
2023/09/16 00:42:48;;;;;;;393.02;348.27;;;;;;;22.51;79.41;99855.81;290843;33;5890;-76
2023/09/16 00:42:59;;;;;;;391.48;340.80;;;;;;;22.52;79.79;99849.50;287952;34;1423;-75
2023/09/16 00:43:09;;;;;;;392.10;337.93;;;;;;;22.51;79.50;99847.81;286074;34;4115;-75
2023/09/16 00:43:20;;;;;;;392.15;335.75;;;;;;;22.50;79.84;99841.63;286849;34;6747;-75
2023/09/16 00:43:30;;;;;;;392.57;337.73;;;;;;;22.50;79.61;99849.63;291108;34;792;-75
2023/09/16 00:43:40;;;;;;;393.00;338.52;;;;;;;22.50;79.35;99854.13;287847;34;1417;-76
2023/09/16 00:43:51;;;;;;;394.20;342.33;;;;;;;22.50;79.85;99851.44;284851;34;7827;-75
2023/09/16 00:44:02;;;;;;;394.50;346.75;;;;;;;22.51;79.43;99861.16;283725;34;9195;-75
2023/09/16 00:44:12;;;;;;;393.63;349.13;;;;;;;22.49;79.88;99849.75;286212;34;1299;-75
2023/09/16 00:44:22;;;;;;;395.60;351.83;;;;;;;22.49;80.12;99852.44;284176;34;9140;-75
2023/09/16 00:44:53;;;;;;;397.27;348.57;;;;;;;22.49;79.73;99855.94;283263;34;9559;-75
2023/09/16 00:46:49;;;;;;;381.10;322.52;;;;;;;22.46;79.99;99852.69;2494454;27;20268;-75
2023/09/16 00:47:00;;;;;;;392.52;344.70;;;;;;;22.45;79.90;99851.84;354169;27;856;-75
2023/09/16 00:47:10;;;;;;;393.87;346.50;;;;;;;22.44;79.88;99850.16;350032;28;1446;-75
2023/09/16 00:47:20;;;;;;;395.70;345.27;;;;;;;22.46;79.97;99858.03;347280;28;1299;-75
2023/09/16 00:47:32;;;;;;;392.90;339.92;;;;;;;22.46;80.26;99858.03;346047;28;869;-75
2023/09/16 00:47:42;;;;;;;391.98;342.10;;;;;;;22.43;80.21;99852.94;349950;28;1298;-75
2023/09/16 00:47:53;;;;;;;391.15;339.15;;;;;;;22.43;80.13;99858.28;350058;28;804;-75
2023/09/16 00:48:03;;;;;;;391.30;338.77;;;;;;;22.41;80.34;99855.75;349822;28;1325;-75
2023/09/16 00:48:15;;;;;;;392.05;337.98;;;;;;;22.40;80.40;99853.22;348554;28;1142;-75
2023/09/16 00:48:25;;;;;;;395.13;347.00;;;;;;;22.42;80.04;99856.59;349072;28;992;-75
2023/09/16 00:48:36;;;;;;;394.90;350.33;;;;;;;22.43;80.32;99852.94;347351;28;905;-76
2023/09/16 00:48:46;;;;;;;394.13;350.08;;;;;;;22.42;80.35;99856.59;350956;28;1605;-76
2023/09/16 00:48:57;;;;;;;391.07;340.17;;;;;;;22.42;80.16;99856.59;349991;28;1202;-75
2023/09/16 00:49:07;;;;;;;390.85;336.48;;;;;;;22.42;80.23;99852.09;348633;28;1204;-76
2023/09/16 00:49:18;;;;;;;392.73;339.00;;;;;;;22.43;80.27;99852.94;347377;28;1184;-76
2023/09/16 00:49:30;;;;;;;391.47;337.70;;;;;;;22.43;80.27;99853.81;350951;28;1305;-76
2023/09/16 00:49:40;;;;;;;391.75;339.65;;;;;;;22.42;80.25;99851.25;351349;28;1355;-75
2023/09/16 00:49:51;;;;;;;391.77;341.57;;;;;;;22.39;80.44;99855.03;349990;28;1206;-75
2023/09/16 00:50:04;;;;;;;393.00;344.87;;;;;;;22.40;80.21;99847.88;344557;28;1306;-75
2023/09/16 00:50:17;;;;;;;390.33;341.45;;;;;;;22.39;80.49;99852.38;348529;28;1269;-75
2023/09/16 00:50:27;;;;;;;388.33;339.80;;;;;;;22.40;80.25;99853.22;346900;28;1359;-75
2023/09/16 00:50:38;;;;;;;387.87;337.93;;;;;;;22.40;80.62;99850.56;345878;28;1315;-75
2023/09/16 00:50:48;;;;;;;388.48;340.90;;;;;;;22.40;80.54;99854.06;340584;29;966;-76
2023/09/16 00:50:59;;;;;;;390.17;343.03;;;;;;;22.40;80.39;99854.06;341910;28;916;-76
2023/09/16 00:51:09;;;;;;;390.67;344.13;;;;;;;22.42;80.65;99851.25;344596;28;1201;-77
2023/09/16 00:51:20;;;;;;;393.02;344.27;;;;;;;22.38;80.41;99848.00;346080;28;1435;-76
2023/09/16 00:51:30;;;;;;;391.87;342.23;;;;;;;22.39;80.75;99851.53;347381;28;1169;-76
2023/09/16 00:51:44;;;;;;;392.23;342.40;;;;;;;22.39;80.51;99854.19;345598;28;1326;-75
2023/09/16 00:51:55;;;;;;;395.20;348.33;;;;;;;22.39;80.60;99851.53;345304;28;1386;-76
2023/09/16 00:52:07;;;;;;;395.80;344.95;;;;;;;22.37;80.21;99850.81;346026;28;1072;-76
2023/09/16 00:52:17;;;;;;;390.20;334.58;;;;;;;22.38;80.26;99844.50;345872;28;1575;-76
2023/09/16 00:52:28;;;;;;;388.37;333.37;;;;;;;22.38;80.43;99853.34;344693;28;1116;-75
2023/09/16 00:52:51;;;;;;;389.98;336.30;;;;;;;22.40;80.55;99850.56;346065;28;980;-76
2023/09/16 00:53:03;;;;;;;389.50;331.30;;;;;;;22.39;80.46;99848.84;348193;28;1356;-74
2023/09/16 00:53:13;;;;;;;389.40;333.55;;;;;;;22.39;80.25;99856.84;345240;28;1304;-74
2023/09/16 00:53:23;;;;;;;392.87;338.53;;;;;;;22.39;80.78;99851.53;344679;28;1176;-74
2023/09/16 00:53:34;;;;;;;394.48;342.45;;;;;;;22.38;80.30;99850.69;342006;28;881;-75
2023/09/16 00:53:45;;;;;;;397.03;343.57;;;;;;;22.39;80.44;99846.19;341940;28;940;-75